ADDS METAR Data INFO
IDs: Format: Raw Decoded Include TAF

Data at: 0145 UTC 17 Oct 2017

KMKY 170135Z 05004KT 10SM 27/25 A2996 RMK AO2 LTG DSNT N SLP300 PWINO FZRANO RVRNO
KMKY 170115Z 04004KT 10SM 27/25 A2996 RMK AO2 LTG DSNT N SLP300 PWINO FZRANO RVRNO
KMKY 170056Z AUTO 00000KT 10SM 28/25 A2995 RMK AO2 LTG DSNT N SLP141 T02780250 $
KMKY 170055Z 00000KT 10SM 28/25 A2995 RMK AO2 LTG DSNT N SLP299 PWINO FZRANO RVRNO
KMKY 170035Z 27003KT 10SM 27/25 A2993 RMK AO2 SLP299 PWINO FZRANO RVRNO
KMKY 170015Z 29004KT 10SM 28/25 A2993 RMK AO2 SLP299 PWINO FZRANO RVRNO
KMKY 162356Z AUTO 29004KT 10SM 28/24 A2992 RMK AO2 LTG DSNT SE SLP132 T02780244 10311 20278 53006 $
KMKY 162355Z 29004KT 10SM 28/24 A2992 RMK AO2 LTG DSNT SE SLP299 10310 20280 52007 PWINO FZRANO RVRNO
KMKY 162335Z 29003KT 10SM 28/24 A2992 RMK AO2 SLP299 PWINO FZRANO RVRNO
KMKY 162315Z 29004KT 10SM 28/24 A2991 RMK AO2 SLP299 PWINO FZRANO RVRNO
KMKY 162256Z AUTO 28006KT 10SM 28/24 A2991 RMK AO2 SLP127 T02830244 $
KMKY 162255Z 28006KT 10SM 28/24 A2991 RMK AO2 SLP299 PWINO FZRANO RVRNO
KMKY 162235Z 30007KT 10SM 29/24 A2990 RMK AO2 SLP299 PWINO FZRANO RVRNO
KMKY 162215Z 27006KT 10SM 29/24 A2990 RMK AO2 SLP299 PWINO FZRANO RVRNO
KMKY 162156Z AUTO 28007KT 10SM 29/24 A2990 RMK AO2 SLP125 T02940239 $
KMKY 162155Z 27007KT 10SM 29/24 A2990 RMK AO2 SLP299 PWINO FZRANO RVRNO
KMKY 162135Z 28007KT 10SM 30/24 A2990 RMK AO2 SLP299 PWINO FZRANO RVRNO
KMKY 162115Z 27010KT 10SM 31/24 A2991 RMK AO2 SLP299 PWINO FZRANO RVRNO
KMKY 162056Z AUTO 26006KT 10SM 31/23 A2990 RMK AO2 SLP126 T03060233 56015 $
KMKY 162055Z 26007KT 10SM 31/23 A2990 RMK AO2 SLP299 57017 PWINO FZRANO RVRNO
KMKY 162035Z 28010KT 10SM 30/24 A2990 RMK AO2 SLP299 PWINO FZRANO RVRNO
KMKY 162015Z VRB06KT 10SM 31/24 A2990 RMK AO2 SLP299 PWINO FZRANO RVRNO
KMKY 161956Z AUTO 26007KT 10SM 31/24 A2991 RMK AO2 SLP127 T03060239 $
KMKY 161955Z 26009KT 10SM 31/24 A2991 RMK AO2 SLP299 PWINO FZRANO RVRNO
KMKY 161935Z 25008KT 10SM 31/24 A2991 RMK AO2 SLP299 PWINO FZRANO RVRNO
KMKY 161915Z 24005KT 10SM 31/24 A2992 RMK AO2 SLP299 PWINO FZRANO RVRNO
KMKY 161856Z AUTO 24008KT 10SM 30/24 A2992 RMK AO2 SLP131 T03000239 $
KMKY 161855Z 23008KT 10SM 30/24 A2992 RMK AO2 SLP299 PWINO FZRANO RVRNO
KMKY 161835Z 23009KT 10SM 30/24 A2993 RMK AO2 SLP299 PWINO FZRANO RVRNO
KMKY 161815Z VRB03KT 10SM 31/23 A2994 RMK AO2 SLP299 PWINO FZRANO RVRNO
KMKY 161755Z 31004KT 10SM 31/23 A2995 RMK AO2 SLP300 10310 20250 57024 PWINO FZRANO RVRNO
KMKY 161735Z 30007KT 10SM 31/23 A2996 RMK AO2 SLP300 PWINO FZRANO RVRNO
KMKY 161715Z 30005KT 10SM 31/24 A2997 RMK AO2 SLP300 PWINO FZRANO RVRNO
KMKY 161656Z AUTO 26004KT 10SM 31/23 A2998 RMK AO2 SLP152 T03060233 $
KMKY 161655Z 28005KT 10SM 31/24 A2998 RMK AO2 SLP300 PWINO FZRANO RVRNO
KMKY 161635Z 00000KT 10SM 31/22 A2999 RMK AO2 SLP300 PWINO FZRANO RVRNO
KMKY 161615Z 07004KT 10SM 31/23 A3000 RMK AO2 SLP300 PWINO FZRANO RVRNO
KMKY 161556Z AUTO VRB03KT 10SM 31/23 A3001 RMK AO2 SLP160 T03110228 $
KMKY 161555Z VRB03KT 10SM 31/23 A3001 RMK AO2 SLP300 PWINO FZRANO RVRNO
KMKY 161535Z 00000KT 10SM 30/23 A3001 RMK AO2 SLP300 PWINO FZRANO RVRNO
KMKY 161515Z VRB03KT 10SM 30/24 A3002 RMK AO2 SLP300 PWINO FZRANO RVRNO
KMKY 161456Z AUTO VRB04KT 10SM 29/23 A3001 RMK AO2 SLP163 T02940233 50008 $
KMKY 161455Z VRB03KT 10SM 30/23 A3002 RMK AO2 SLP300 52010 PWINO FZRANO RVRNO
KMKY 161435Z 00000KT 10SM 29/24 A3002 RMK AO2 SLP300 PWINO FZRANO RVRNO
KMKY 161415Z 00000KT 10SM 29/23 A3002 RMK AO2 SLP300 PWINO FZRANO RVRNO
KMKY 161356Z AUTO 00000KT 10SM 28/24 A3002 RMK AO2 SLP164 T02830239 $
KMKY 161355Z 00000KT 10SM 28/24 A3002 RMK AO2 SLP300 PWINO FZRANO RVRNO
KMKY 161335Z 00000KT 10SM 28/24 A3002 RMK AO2 SLP300 PWINO FZRANO RVRNO
KMKY 161315Z 00000KT 10SM 27/24 A3001 RMK AO2 SLP300 PWINO FZRANO RVRNO
KMKY 161256Z AUTO 00000KT 10SM 27/24 A3001 RMK AO2 SLP161 T02670244 $
KMKY 161255Z 10003KT 10SM 27/24 A3001 RMK AO2 SLP300 PWINO FZRANO RVRNO
KMKY 161235Z 08003KT 10SM 26/24 A3000 RMK AO2 SLP300 PWINO FZRANO RVRNO
KMKY 161215Z 00000KT 10SM 26/24 A3000 RMK AO2 SLP300 PWINO FZRANO RVRNO
KMKY 161156Z AUTO 00000KT 10SM 25/24 A2999 RMK AO2 SLP155 T02500244 10256 20244 53016 $
KMKY 161155Z 00000KT 10SM 25/24 A2999 RMK AO2 SLP300 10260 20240 52014 PWINO FZRANO RVRNO
KMKY 161135Z 00000KT 10SM 24/24 A2998 RMK AO2 SLP300 PWINO FZRANO RVRNO
KMKY 161115Z 00000KT 10SM 24/24 A2998 RMK AO2 SLP300 PWINO FZRANO RVRNO
KMKY 161056Z AUTO 00000KT 10SM 25/24 A2997 RMK AO2 SLP149 T02500244 $
KMKY 161055Z 00000KT 10SM 25/24 A2997 RMK AO2 SLP300 PWINO FZRANO RVRNO
KMKY 161035Z 00000KT 10SM 24/24 A2997 RMK AO2 SLP300 PWINO FZRANO RVRNO
KMKY 161015Z 00000KT 10SM 25/24 A2996 RMK AO2 SLP300 PWINO FZRANO RVRNO
KMKY 160956Z AUTO 00000KT 10SM 24/24 A2995 RMK AO2 SLP143 T02440239 $
KMKY 160955Z 00000KT 10SM 24/24 A2995 RMK AO2 SLP300 PWINO FZRANO RVRNO
KMKY 160935Z 00000KT 9SM 25/24 A2995 RMK AO2 SLP299 PWINO FZRANO RVRNO
KMKY 160915Z 07004KT 10SM 25/24 A2995 RMK AO2 SLP299 PWINO FZRANO RVRNO
KMKY 160856Z AUTO 07003KT 10SM 25/24 A2994 RMK AO2 SLP140 T02500244 56013 $
KMKY 160855Z 07003KT 10SM 25/24 A2995 RMK AO2 SLP299 57010 PWINO FZRANO RVRNO
KMKY 160835Z 07003KT 10SM 25/24 A2995 RMK AO2 SLP300 PWINO FZRANO RVRNO
KMKY 160815Z 07003KT 7SM 25/24 A2995 RMK AO2 SLP300 PWINO FZRANO RVRNO
KMKY 160756Z AUTO 09003KT 7SM 25/24 A2995 RMK AO2 SLP142 T02500244 $
KMKY 160755Z 00000KT 7SM 25/24 A2995 RMK AO2 SLP300 PWINO FZRANO RVRNO
KMKY 160735Z 12003KT 5SM 25/24 A2995 RMK AO2 SLP300 PWINO FZRANO RVRNO
KMKY 160715Z 12003KT 10SM 25/24 A2996 RMK AO2 SLP300 PWINO FZRANO RVRNO
KMKY 160656Z AUTO 11004KT 8SM 25/24 A2996 RMK AO2 SLP145 T02500244 $
KMKY 160655Z 11003KT 7SM 25/24 A2996 RMK AO2 SLP300 PWINO FZRANO RVRNO
KMKY 160635Z 08003KT 10SM 26/24 A2997 RMK AO2 SLP300 PWINO FZRANO RVRNO
KMKY 160615Z 08003KT 10SM 26/24 A2998 RMK AO2 SLP300 PWINO FZRANO RVRNO
KMKY 160556Z AUTO 00000KT 10SM 26/24 A2998 RMK AO2 SLP152 T02560244 10283 20256 58009 $
KMKY 160555Z 00000KT 10SM 26/24 A2998 RMK AO2 SLP300 10280 20260 403200230 57010 PWINO FZRANO RVRNO
KMKY 160535Z 00000KT 9SM 26/24 A2998 RMK AO2 SLP300 PWINO FZRANO RVRNO
KMKY 160515Z 00000KT 10SM 26/25 A2999 RMK AO2 SLP300 PWINO FZRANO RVRNO
KMKY 160456Z AUTO 00000KT 10SM 26/25 A2999 RMK AO2 SLP156 T02610250 403220233 $
KMKY 160455Z 00000KT 10SM 26/25 A2999 RMK AO2 SLP300 PWINO FZRANO RVRNO
KMKY 160435Z 33003KT 10SM 27/25 A2999 RMK AO2 SLP300 PWINO FZRANO RVRNO
KMKY 160415Z 32003KT 10SM 27/25 A3000 RMK AO2 SLP300 PWINO FZRANO RVRNO
KMKY 160356Z AUTO 30004KT 10SM 27/24 A3000 RMK AO2 SLP160 T02720244 $
KMKY 160355Z 30004KT 10SM 27/24 A3000 RMK AO2 SLP300 PWINO FZRANO RVRNO
KMKY 160335Z 28003KT 10SM 27/24 A3001 RMK AO2 SLP300 PWINO FZRANO RVRNO
KMKY 160315Z 26005KT 10SM 27/24 A3001 RMK AO2 SLP300 PWINO FZRANO RVRNO
KMKY 160256Z AUTO 26005KT 10SM 27/24 A3001 RMK AO2 SLP161 T02670244 51008 $
KMKY 160255Z 26005KT 10SM 27/24 A3001 RMK AO2 SLP300 52010 PWINO FZRANO RVRNO
KMKY 160235Z 26003KT 10SM 27/24 A3001 RMK AO2 SLP300 PWINO FZRANO RVRNO
KMKY 160215Z 00000KT 10SM 27/24 A3001 RMK AO2 SLP300 PWINO FZRANO RVRNO
KMKY 160156Z AUTO 00000KT 10SM 27/24 A3001 RMK AO2 SLP161 T02720239 $
KMKY 160155Z 00000KT 10SM 27/24 A3001 RMK AO2 SLP300 PWINO FZRANO RVRNO
KMKY 160135Z 25003KT 10SM 27/24 A3001 RMK AO2 SLP300 PWINO FZRANO RVRNO
KMKY 160115Z 20003KT 10SM 27/24 A3000 RMK AO2 SLP300 PWINO FZRANO RVRNO
KMKY 160056Z AUTO 28003KT 10SM 27/24 A2999 RMK AO2 SLP156 T02720239 $
KMKY 160055Z 27004KT 10SM 27/24 A2999 RMK AO2 SLP300 PWINO FZRANO RVRNO
KMKY 160035Z 29003KT 10SM 28/24 A2999 RMK AO2 SLP300 PWINO FZRANO RVRNO
KMKY 160015Z 31004KT 10SM 28/24 A2999 RMK AO2 SLP300 PWINO FZRANO RVRNO
KMKY 152356Z AUTO 31003KT 10SM 28/24 A2998 RMK AO2 SLP153 T02830239 10322 20283 53008 $
KMKY 152355Z 00000KT 10SM 28/24 A2998 RMK AO2 SLP300 10320 20280 52007 PWINO FZRANO RVRNO
KMKY 152335Z 31005KT 10SM 28/24 A2998 RMK AO2 LTG DSNT S SLP300 PWINO FZRANO RVRNO
KMKY 152315Z 32005KT 10SM 28/24 A2997 RMK AO2 LTG DSNT SE SLP300 PWINO FZRANO RVRNO
KMKY 152256Z AUTO 29006KT 10SM 28/24 A2996 RMK AO2 LTG DSNT SE SLP144 T02830244 $
KMKY 152255Z 29006KT 10SM 28/24 A2996 RMK AO2 LTG DSNT SE SLP300 PWINO FZRANO RVRNO
KMKY 152235Z 29008KT 10SM 29/24 A2995 RMK AO2 SLP300 PWINO FZRANO RVRNO
KMKY 152215Z 29008KT 10SM 29/24 A2995 RMK AO2 SLP300 PWINO FZRANO RVRNO
KMKY 152156Z AUTO 29006KT 10SM 29/24 A2995 RMK AO2 SLP141 T02940239 $
KMKY 152155Z 30006KT 10SM 30/24 A2995 RMK AO2 SLP300 PWINO FZRANO RVRNO
KMKY 152135Z 27007KT 10SM 30/24 A2995 RMK AO2 SLP300 PWINO FZRANO RVRNO
KMKY 152115Z 28006KT 10SM 31/24 A2995 RMK AO2 SLP300 PWINO FZRANO RVRNO
KMKY 152056Z AUTO 28007KT 10SM 30/24 A2996 RMK AO2 SLP145 T03000239 56019 $
KMKY 152055Z 28007KT 10SM 31/24 A2996 RMK AO2 SLP300 57020 PWINO FZRANO RVRNO
KMKY 152035Z 28006KT 10SM 31/24 A2996 RMK AO2 SLP300 PWINO FZRANO RVRNO
KMKY 152015Z 29008KT 10SM 30/24 A2997 RMK AO2 SLP300 PWINO FZRANO RVRNO
KMKY 151956Z AUTO 29007KT 10SM 31/24 A2997 RMK AO2 SLP150 T03060244 $
KMKY 151955Z 28007KT 10SM 31/24 A2997 RMK AO2 SLP300 PWINO FZRANO RVRNO
KMKY 151915Z 24008KT 10SM 31/24 A2998 RMK AO2 SLP300 PWINO FZRANO RVRNO
KMKY 151856Z AUTO 29008KT 10SM 31/24 A2999 RMK AO2 SLP154 T03060239 $
KMKY 151855Z 30009KT 10SM 31/24 A2999 RMK AO2 SLP300 PWINO FZRANO RVRNO
KMKY 151835Z 30004KT 10SM 31/22 A2999 RMK AO2 SLP300 PWINO FZRANO RVRNO
KMKY 151815Z 23004KT 10SM 32/21 A3000 RMK AO2 SLP300 PWINO FZRANO RVRNO
KMKY 151756Z AUTO 08004KT 10SM 31/22 A3001 RMK AO2 SLP164 T03110222 10317 20239 58018 $
KMKY 151755Z 08005KT 10SM 31/22 A3002 RMK AO2 SLP300 10320 20230 57017 PWINO FZRANO RVRNO
KMKY 151735Z 04005KT 10SM 32/22 A3003 RMK AO2 SLP300 PWINO FZRANO RVRNO
KMKY 151715Z VRB03KT 10SM 32/22 A3003 RMK AO2 SLP300 PWINO FZRANO RVRNO
KMKY 151656Z AUTO 08007KT 10SM 31/23 A3004 RMK AO2 SLP171 T03110228 $
KMKY 151655Z 08007KT 10SM 31/23 A3004 RMK AO2 SLP300 PWINO FZRANO RVRNO
KMKY 151635Z 08004KT 10SM 31/23 A3005 RMK AO2 SLP300 PWINO FZRANO RVRNO
KMKY 151615Z 08007KT 10SM 31/23 A3005 RMK AO2 SLP300 PWINO FZRANO RVRNO
KMKY 151556Z AUTO 05003KT 10SM 31/23 A3006 RMK AO2 SLP178 T03060228 $
KMKY 151555Z VRB04KT 10SM 31/23 A3006 RMK AO2 SLP301 PWINO FZRANO RVRNO
KMKY 151535Z VRB03KT 10SM 30/23 A3006 RMK AO2 SLP301 PWINO FZRANO RVRNO
KMKY 151515Z 09004KT 10SM 29/23 A3007 RMK AO2 SLP301 PWINO FZRANO RVRNO
KMKY 151456Z AUTO 05009KT 10SM 29/24 A3007 RMK AO2 SLP181 T02940239 51009 $
KMKY 151455Z VRB05KT 10SM 29/24 A3007 RMK AO2 SLP301 52010 PWINO FZRANO RVRNO
KMKY 151435Z 06007KT 10SM 28/24 A3007 RMK AO2 SLP301 PWINO FZRANO RVRNO
KMKY 151415Z 08007KT 10SM 28/24 A3007 RMK AO2 SLP301 PWINO FZRANO RVRNO
KMKY 151356Z AUTO 06005KT 10SM 27/24 A3007 RMK AO2 SLP181 T02720244 $
KMKY 151355Z 06006KT 10SM 27/24 A3007 RMK AO2 SLP301 PWINO FZRANO TSNO RVRNO